createdAt,value
2019-04-10T00:00:41.304Z,10.91
2019-04-10T00:03:08.271Z,10.87
2019-04-10T00:05:34.190Z,10.83
2019-04-10T00:08:00.001Z,10.83
2019-04-10T00:10:25.821Z,10.88
2019-04-10T00:12:52.000Z,10.87
2019-04-10T00:15:18.800Z,10.83
2019-04-10T00:17:45.133Z,10.75
2019-04-10T00:20:11.928Z,10.79
2019-04-10T00:22:38.710Z,10.70
2019-04-10T00:25:05.020Z,10.77
2019-04-10T00:27:31.119Z,10.76
2019-04-10T00:29:56.930Z,10.81
2019-04-10T00:32:23.724Z,10.76
2019-04-10T00:34:49.766Z,10.70
2019-04-10T00:37:23.863Z,10.80
2019-04-10T00:39:44.498Z,10.82
2019-04-10T00:42:10.508Z,10.85
2019-04-10T00:44:37.447Z,10.87
2019-04-10T00:47:04.421Z,10.81
2019-04-10T00:49:31.440Z,10.76
2019-04-10T00:51:57.558Z,10.75
2019-04-10T00:54:23.750Z,10.78
2019-04-10T00:56:50.607Z,10.77
2019-04-10T00:59:16.477Z,10.65
2019-04-10T01:01:43.637Z,10.76
2019-04-10T01:04:10.560Z,10.84
2019-04-10T01:06:36.487Z,10.87
2019-04-10T01:09:04.899Z,10.87
2019-04-10T01:11:30.813Z,10.88
2019-04-10T01:13:57.056Z,10.87
2019-04-10T01:16:23.244Z,10.87
2019-04-10T01:18:49.009Z,10.81
2019-04-10T01:21:14.848Z,10.76
2019-04-10T01:23:41.407Z,10.80
2019-04-10T01:26:07.564Z,10.77
2019-04-10T01:28:33.405Z,10.76
2019-04-10T01:30:59.214Z,10.77
2019-04-10T01:33:25.047Z,10.74
2019-04-10T01:35:54.319Z,10.68
2019-04-10T01:38:20.848Z,10.67
2019-04-10T01:40:47.792Z,10.66
2019-04-10T01:43:17.543Z,10.60
2019-04-10T01:45:41.812Z,10.53
2019-04-10T01:48:07.978Z,10.54
2019-04-10T01:50:34.673Z,10.30
2019-04-10T01:53:01.569Z,10.53
2019-04-10T01:55:30.275Z,10.56
2019-04-10T01:57:56.805Z,10.55
2019-04-10T02:00:25.681Z,10.57
2019-04-10T02:02:52.071Z,10.62
2019-04-10T02:05:18.716Z,10.59
2019-04-10T02:07:48.692Z,10.58
2019-04-10T02:10:12.745Z,10.56
2019-04-10T02:12:38.937Z,10.39
2019-04-10T02:15:05.073Z,10.29
2019-04-10T02:17:30.895Z,10.28
2019-04-10T02:19:56.865Z,10.20
2019-04-10T02:22:22.971Z,10.22
2019-04-10T02:24:49.379Z,10.23
2019-04-10T02:27:16.247Z,10.23
2019-04-10T02:29:42.371Z,10.25
2019-04-10T02:32:08.181Z,10.20
2019-04-10T02:34:34.441Z,10.21
2019-04-10T02:37:00.713Z,10.19
2019-04-10T02:39:34.078Z,10.11
2019-04-10T02:41:56.047Z,10.09
2019-04-10T02:44:22.979Z,10.09
2019-04-10T02:46:49.763Z,10.05
2019-04-10T02:49:18.482Z,10.01
2019-04-10T02:51:45.328Z,10.02
2019-04-10T02:54:11.942Z,9.93
2019-04-10T02:56:39.197Z,9.89
2019-04-10T02:59:05.169Z,9.86
2019-04-10T03:01:31.626Z,9.91
2019-04-10T03:03:57.465Z,9.85
2019-04-10T03:06:23.658Z,9.76
2019-04-10T03:09:03.444Z,9.77
2019-04-10T03:11:19.577Z,9.64
2019-04-10T03:13:45.388Z,9.64
2019-04-10T03:16:13.995Z,9.68
2019-04-10T03:18:41.024Z,9.66
2019-04-10T03:21:07.302Z,9.66
2019-04-10T03:23:33.633Z,9.72
2019-04-10T03:25:59.742Z,9.75
2019-04-10T03:28:25.589Z,9.72
2019-04-10T03:30:53.937Z,9.74
2019-04-10T03:33:29.684Z,9.75
2019-04-10T03:35:54.915Z,9.80
2019-04-10T03:38:21.685Z,9.74
2019-04-10T03:40:48.021Z,9.76
2019-04-10T03:43:14.037Z,9.80
2019-04-10T03:45:41.010Z,9.79
2019-04-10T03:48:08.427Z,9.78
2019-04-10T03:50:34.317Z,9.80
2019-04-10T03:53:00.365Z,9.64
2019-04-10T03:55:27.104Z,9.67
2019-04-10T03:57:53.350Z,9.69
2019-04-10T04:00:20.954Z,9.73
2019-04-10T04:02:46.899Z,9.72
2019-04-10T04:05:12.997Z,9.64
2019-04-10T04:07:38.935Z,9.13
2019-04-10T04:10:05.142Z,9.60
2019-04-10T04:12:30.918Z,9.47
2019-04-10T04:14:57.052Z,9.47
2019-04-10T04:17:24.138Z,9.45
2019-04-10T04:19:50.471Z,9.50
2019-04-10T04:22:16.762Z,9.46
2019-04-10T04:24:46.117Z,9.51
2019-04-10T04:27:13.165Z,9.51
2019-04-10T04:29:39.236Z,9.46
2019-04-10T04:32:05.301Z,9.40
2019-04-10T04:34:34.704Z,9.40
2019-04-10T04:37:00.840Z,9.39
2019-04-10T04:39:30.518Z,9.38
2019-04-10T04:41:58.719Z,9.30
2019-04-10T04:44:24.680Z,9.31
2019-04-10T04:46:50.675Z,9.26
2019-04-10T04:49:16.518Z,9.29
2019-04-10T04:51:42.295Z,9.33
2019-04-10T04:54:08.696Z,9.36
2019-04-10T04:56:37.540Z,9.38
2019-04-10T04:59:03.667Z,9.20
2019-04-10T05:01:29.669Z,9.19
2019-04-10T05:03:55.587Z,9.16
2019-04-10T05:06:24.415Z,9.24
2019-04-10T05:08:50.662Z,9.24
2019-04-10T05:11:22.349Z,9.19
2019-04-10T05:13:48.985Z,9.18
2019-04-10T05:16:14.914Z,9.13
2019-04-10T05:18:40.746Z,9.09
2019-04-10T05:21:10.600Z,9.13
2019-04-10T05:23:36.808Z,9.16
2019-04-10T05:26:02.781Z,9.18
2019-04-10T05:28:29.969Z,9.16
2019-04-10T05:30:56.887Z,9.19
2019-04-10T05:33:22.734Z,9.21
2019-04-10T05:35:48.803Z,9.21
2019-04-10T05:38:15.040Z,9.19
2019-04-10T05:40:40.855Z,9.19
2019-04-10T05:43:11.553Z,9.24
2019-04-10T05:45:37.978Z,9.25
2019-04-10T05:48:07.135Z,9.10
2019-04-10T05:50:33.218Z,9.20
2019-04-10T05:53:00.075Z,9.22
2019-04-10T05:55:26.663Z,9.26
2019-04-10T05:57:55.254Z,9.23
2019-04-10T06:00:22.909Z,9.10
2019-04-10T06:02:48.898Z,9.19
2019-04-10T06:05:16.121Z,9.15
2019-04-10T06:07:42.039Z,9.13
2019-04-10T06:10:10.267Z,9.02
2019-04-10T06:12:36.153Z,9.22
2019-04-10T06:15:04.503Z,9.34
2019-04-10T06:17:30.340Z,9.25
2019-04-10T06:19:56.693Z,9.40
2019-04-10T06:22:22.902Z,9.40
2019-04-10T06:24:52.237Z,9.47
2019-04-10T06:27:18.522Z,9.45
2019-04-10T06:29:45.003Z,9.44
2019-04-10T06:32:11.966Z,9.48
2019-04-10T06:34:40.909Z,9.55
2019-04-10T06:37:08.012Z,9.56
2019-04-10T06:39:35.136Z,9.62
2019-04-10T06:42:02.373Z,9.74
2019-04-10T06:44:28.433Z,9.72
2019-04-10T06:46:55.010Z,9.77
2019-04-10T06:49:21.094Z,9.81
2019-04-10T06:51:49.991Z,9.82
2019-04-10T06:54:16.433Z,9.84
2019-04-10T06:56:43.026Z,9.82
2019-04-10T06:59:09.328Z,9.84
2019-04-10T07:01:45.603Z,9.70
2019-04-10T07:04:07.411Z,9.73
2019-04-10T07:06:47.234Z,9.61
2019-04-10T07:08:59.170Z,9.70
2019-04-10T07:11:29.172Z,9.76
2019-04-10T07:13:53.871Z,9.18
2019-04-10T07:16:20.594Z,9.84
2019-04-10T07:18:49.013Z,9.94
2019-04-10T07:21:14.741Z,9.95
2019-04-10T07:23:40.788Z,10.00
2019-04-10T07:26:06.668Z,10.04
2019-04-10T07:28:33.547Z,10.10
2019-04-10T07:31:04.990Z,10.16
2019-04-10T07:33:28.791Z,10.23
2019-04-10T07:35:56.528Z,10.33
2019-04-10T07:38:22.749Z,10.30
2019-04-10T07:40:49.136Z,10.21
2019-04-10T07:43:15.267Z,10.20
2019-04-10T07:45:41.162Z,10.18
2019-04-10T07:48:10.782Z,10.28
2019-04-10T07:50:37.131Z,10.37
2019-04-10T07:53:03.269Z,10.39
2019-04-10T07:55:29.357Z,10.40
2019-04-10T07:57:55.409Z,10.37
2019-04-10T08:00:25.265Z,10.34
2019-04-10T08:02:51.586Z,10.23
2019-04-10T08:05:17.436Z,10.20
2019-04-10T08:07:43.246Z,10.19
2019-04-10T08:10:12.132Z,9.99
2019-04-10T08:12:46.036Z,10.07
2019-04-10T08:15:06.950Z,10.19
2019-04-10T08:17:32.864Z,10.29
2019-04-10T08:20:01.764Z,10.25
2019-04-10T08:22:28.687Z,10.27
2019-04-10T08:24:58.020Z,10.43
2019-04-10T08:27:23.883Z,10.39
2019-04-10T08:29:50.615Z,10.57
2019-04-10T08:32:16.779Z,10.50
2019-04-10T08:34:42.840Z,10.63
2019-04-10T08:37:08.755Z,10.59
2019-04-10T08:39:41.217Z,10.72
2019-04-10T08:42:03.422Z,10.51
2019-04-10T08:44:29.886Z,10.65
2019-04-10T08:47:00.111Z,10.73
2019-04-10T08:49:25.950Z,10.96
2019-04-10T08:51:52.196Z,11.09
2019-04-10T08:54:18.504Z,11.10
2019-04-10T08:56:46.978Z,11.13
2019-04-10T08:59:13.784Z,11.30
2019-04-10T09:01:43.010Z,11.39
2019-04-10T09:04:09.046Z,11.42
2019-04-10T09:06:35.630Z,11.09
2019-04-10T09:09:01.462Z,10.98
2019-04-10T09:11:29.726Z,11.05
2019-04-10T09:13:55.028Z,11.03
2019-04-10T09:16:20.821Z,10.91
2019-04-10T09:18:49.537Z,10.98
2019-04-10T09:21:15.676Z,10.99
2019-04-10T09:23:48.270Z,11.07
2019-04-10T09:26:09.214Z,11.14
2019-04-10T09:28:36.701Z,11.22
2019-04-10T09:31:02.872Z,11.23
2019-04-10T09:33:32.325Z,11.24
2019-04-10T09:35:58.668Z,11.29
2019-04-10T09:38:26.456Z,11.11
2019-04-10T09:40:53.284Z,11.17
2019-04-10T09:43:19.359Z,11.13
2019-04-10T09:45:45.937Z,11.07
2019-04-10T09:48:12.803Z,10.98
2019-04-10T09:50:39.588Z,11.00
2019-04-10T09:53:05.725Z,11.07
2019-04-10T09:55:34.353Z,11.10
2019-04-10T09:58:00.263Z,11.04
2019-04-10T10:00:29.948Z,10.92
2019-04-10T10:02:56.080Z,10.77
2019-04-10T10:05:22.412Z,10.80
2019-04-10T10:07:48.722Z,10.88
2019-04-10T10:10:17.524Z,10.89
2019-04-10T10:12:43.316Z,10.96
2019-04-10T10:15:13.357Z,10.99
2019-04-10T10:17:39.343Z,11.11
2019-04-10T10:20:06.222Z,11.20
2019-04-10T10:22:34.037Z,11.27
2019-04-10T10:24:59.885Z,11.23
2019-04-10T10:27:26.792Z,11.29
2019-04-10T10:29:53.516Z,11.27
2019-04-10T10:32:21.290Z,11.31
2019-04-10T10:34:47.156Z,11.37
2019-04-10T10:37:12.966Z,11.27
2019-04-10T10:39:39.123Z,11.40
2019-04-10T10:42:07.834Z,11.51
2019-04-10T10:44:38.365Z,11.55
2019-04-10T10:47:04.303Z,11.57
2019-04-10T10:49:30.641Z,11.79
2019-04-10T10:51:57.276Z,11.99
2019-04-10T10:54:23.163Z,11.65
2019-04-10T10:56:48.964Z,12.18
2019-04-10T10:59:15.474Z,12.13
2019-04-10T11:01:42.142Z,12.11
2019-04-10T11:04:08.846Z,12.34
2019-04-10T11:06:35.065Z,12.32
2019-04-10T11:09:05.863Z,12.47
2019-04-10T11:11:32.570Z,12.45
2019-04-10T11:13:58.955Z,12.46
2019-04-10T11:16:25.112Z,12.55
2019-04-10T11:18:53.037Z,12.43
2019-04-10T11:21:18.921Z,12.43
2019-04-10T11:23:49.264Z,12.54
2019-04-10T11:26:20.233Z,12.66
2019-04-10T11:28:43.339Z,12.66
2019-04-10T11:31:09.442Z,12.73
2019-04-10T11:33:35.382Z,12.69
2019-04-10T11:36:01.588Z,12.75
2019-04-10T11:38:27.392Z,12.81
2019-04-10T11:40:57.295Z,12.91
2019-04-10T11:43:21.610Z,12.80
2019-04-10T11:45:52.479Z,13.01
2019-04-10T11:48:18.318Z,13.07
2019-04-10T11:50:44.492Z,13.20
2019-04-10T11:53:10.508Z,13.37
2019-04-10T11:55:43.749Z,13.59
2019-04-10T11:58:07.841Z,13.69
2019-04-10T12:00:45.295Z,13.73
2019-04-10T12:03:08.738Z,13.63
2019-04-10T12:05:38.119Z,13.51
2019-04-10T12:08:27.956Z,13.57
2019-04-10T12:13:00.180Z,13.80
2019-04-10T12:15:26.213Z,13.93
2019-04-10T12:17:52.072Z,13.97
2019-04-10T12:20:18.726Z,14.04
2019-04-10T12:22:46.085Z,14.09
2019-04-10T12:25:14.451Z,14.03
2019-04-10T12:27:41.182Z,14.18
2019-04-10T12:30:09.482Z,14.30
2019-04-10T12:32:35.271Z,14.26
2019-04-10T12:35:01.084Z,14.41
2019-04-10T12:37:27.742Z,14.58
2019-04-10T12:39:55.101Z,14.75
2019-04-10T12:42:21.860Z,14.61
2019-04-10T12:44:47.736Z,14.51
2019-04-10T12:47:13.792Z,14.61
2019-04-10T12:49:39.883Z,14.68
2019-04-10T12:52:06.013Z,14.98
2019-04-10T12:54:31.998Z,15.20
2019-04-10T12:56:58.791Z,15.36
2019-04-10T12:59:25.693Z,15.55
2019-04-10T13:01:51.804Z,15.59
2019-04-10T13:04:18.066Z,15.60
2019-04-10T13:06:44.277Z,15.73
2019-04-10T13:09:12.919Z,15.75
2019-04-10T13:11:38.515Z,15.61
2019-04-10T13:14:04.649Z,15.38
2019-04-10T13:16:30.481Z,15.29
2019-04-10T13:18:59.034Z,15.47
2019-04-10T13:21:24.842Z,15.69
2019-04-10T13:23:50.682Z,15.90
2019-04-10T13:26:17.631Z,16.17
2019-04-10T13:28:43.562Z,16.38
2019-04-10T13:31:09.408Z,16.40
2019-04-10T13:33:36.340Z,16.32
2019-04-10T13:36:05.488Z,16.30
2019-04-10T13:38:33.935Z,16.39
2019-04-10T13:40:59.756Z,16.31
2019-04-10T13:43:25.651Z,16.21
2019-04-10T13:45:54.705Z,16.10
2019-04-10T13:48:20.764Z,15.95
2019-04-10T13:50:50.756Z,15.77
2019-04-10T13:53:17.526Z,15.66
2019-04-10T13:55:44.431Z,15.71
2019-04-10T13:58:10.806Z,15.61
2019-04-10T14:00:40.590Z,15.51
2019-04-10T14:03:06.618Z,15.38
2019-04-10T14:05:34.030Z,15.19
2019-04-10T14:07:59.981Z,15.28
2019-04-10T14:10:27.941Z,15.39
2019-04-10T14:12:53.761Z,15.35
2019-04-10T14:15:20.221Z,15.41
2019-04-10T14:17:46.178Z,15.45
2019-04-10T14:20:15.163Z,15.26
2019-04-10T14:22:43.886Z,14.98
2019-04-10T14:25:15.593Z,14.80
2019-04-10T14:27:42.581Z,14.74
2019-04-10T14:30:19.298Z,14.64
2019-04-10T14:32:45.356Z,14.70
2019-04-10T14:35:11.472Z,14.74
2019-04-10T14:37:37.926Z,14.82
2019-04-10T14:40:06.789Z,14.58
2019-04-10T14:42:32.878Z,14.57
2019-04-10T14:44:59.289Z,14.46
2019-04-10T14:47:25.604Z,14.34
2019-04-10T14:49:53.660Z,14.31
2019-04-10T14:52:19.433Z,14.28
2019-04-10T14:54:46.056Z,14.18
2019-04-10T14:57:12.738Z,14.12
2019-04-10T14:59:38.677Z,14.04
2019-04-10T15:02:06.705Z,13.93
2019-04-10T15:04:33.099Z,14.23
2019-04-10T15:06:59.028Z,14.28
2019-04-10T15:09:26.248Z,14.08
2019-04-10T15:11:53.210Z,14.10
2019-04-10T15:14:19.428Z,14.13
2019-04-10T15:16:54.443Z,14.07
2019-04-10T15:19:13.194Z,14.17
2019-04-10T15:21:39.013Z,14.20
2019-04-10T15:24:04.837Z,14.33
2019-04-10T15:26:30.656Z,14.24
2019-04-10T15:28:56.466Z,14.25
2019-04-10T15:31:24.923Z,14.27
2019-04-10T15:33:50.202Z,14.39
2019-04-10T15:36:16.250Z,14.58
2019-04-10T15:38:42.289Z,14.57
2019-04-10T15:41:08.495Z,14.58
2019-04-10T15:43:35.108Z,14.43
2019-04-10T15:46:00.892Z,14.57
2019-04-10T15:48:27.186Z,14.54
2019-04-10T15:50:53.860Z,14.61
2019-04-10T15:53:20.209Z,14.68
2019-04-10T15:55:46.107Z,14.77
2019-04-10T15:58:12.000Z,14.67
2019-04-10T16:00:38.105Z,14.79
2019-04-10T16:03:07.215Z,14.69
2019-04-10T16:05:33.441Z,14.72
2019-04-10T16:08:02.987Z,14.72
2019-04-10T16:10:30.819Z,14.76
2019-04-10T16:13:01.289Z,14.68
2019-04-10T16:15:29.227Z,14.58
2019-04-10T16:17:56.934Z,14.59
2019-04-10T16:20:25.249Z,14.56
2019-04-10T16:22:56.711Z,14.50
2019-04-10T16:25:25.597Z,14.40
2019-04-10T16:27:51.756Z,14.37
2019-04-10T16:30:19.460Z,14.39
2019-04-10T16:32:45.266Z,14.36
2019-04-10T16:35:13.598Z,14.29
2019-04-10T16:37:39.713Z,14.22
2019-04-10T16:40:08.478Z,14.14
2019-04-10T16:42:34.837Z,13.97
2019-04-10T16:45:01.770Z,13.87
2019-04-10T16:47:28.268Z,13.89
2019-04-10T16:49:55.174Z,14.00
2019-04-10T16:52:21.139Z,13.93
2019-04-10T16:54:51.479Z,13.75
2019-04-10T16:57:18.447Z,13.47
2019-04-10T16:59:44.614Z,13.47
2019-04-10T17:02:11.374Z,13.43
2019-04-10T17:04:37.220Z,13.40
2019-04-10T17:07:03.058Z,13.40
2019-04-10T17:09:29.047Z,13.44
2019-04-10T17:11:56.360Z,13.36
2019-04-10T17:14:23.687Z,13.31
2019-04-10T17:16:50.306Z,13.19
2019-04-10T17:19:16.140Z,13.13
2019-04-10T17:21:42.546Z,13.03
2019-04-10T17:24:09.201Z,12.97
2019-04-10T17:26:35.370Z,12.90
2019-04-10T17:29:01.400Z,12.98
2019-04-10T17:31:27.200Z,12.93
2019-04-10T17:33:54.452Z,12.88
2019-04-10T17:36:20.997Z,12.78
2019-04-10T17:38:46.895Z,12.75
2019-04-10T17:41:12.699Z,12.75
2019-04-10T17:43:38.496Z,12.61
2019-04-10T17:46:04.279Z,12.47
2019-04-10T17:48:31.049Z,12.39
2019-04-10T17:50:57.470Z,12.43
2019-04-10T17:53:23.357Z,12.40
2019-04-10T17:55:49.682Z,12.38
2019-04-10T17:58:19.198Z,12.37
2019-04-10T18:00:51.823Z,12.38
2019-04-10T18:03:18.925Z,12.32
2019-04-10T18:05:45.201Z,12.24
2019-04-10T18:08:11.005Z,12.13
2019-04-10T18:10:44.684Z,12.24
2019-04-10T18:13:05.256Z,12.22
2019-04-10T18:15:32.332Z,12.18
2019-04-10T18:17:59.607Z,12.04
2019-04-10T18:20:26.258Z,12.01
2019-04-10T18:22:53.324Z,11.98
2019-04-10T18:25:20.176Z,11.90
2019-04-10T18:27:46.895Z,11.69
2019-04-10T18:30:14.056Z,11.99
2019-04-10T18:32:40.145Z,11.92
2019-04-10T18:35:06.747Z,11.95
2019-04-10T18:37:32.896Z,11.89
2019-04-10T18:39:59.060Z,11.94
2019-04-10T18:42:26.695Z,11.94
2019-04-10T18:44:53.262Z,11.93
2019-04-10T18:47:19.381Z,11.81
2019-04-10T18:49:48.552Z,11.83
2019-04-10T18:52:15.069Z,11.85
2019-04-10T18:54:41.511Z,11.81
2019-04-10T18:57:07.444Z,11.77
2019-04-10T18:59:35.131Z,11.69
2019-04-10T19:02:12.279Z,11.69
2019-04-10T19:04:49.577Z,11.68
2019-04-10T19:07:15.428Z,11.69
2019-04-10T19:09:41.223Z,11.65
2019-04-10T19:12:07.059Z,11.59
2019-04-10T19:14:36.183Z,11.64
2019-04-10T19:17:00.568Z,11.71
2019-04-10T19:19:26.370Z,11.77
2019-04-10T19:21:52.158Z,11.73
2019-04-10T19:24:19.697Z,11.76
2019-04-10T19:26:45.550Z,11.81
2019-04-10T19:29:11.373Z,11.78
2019-04-10T19:31:40.271Z,11.83
2019-04-10T19:34:07.282Z,11.84
2019-04-10T19:36:34.298Z,11.86
2019-04-10T19:39:00.309Z,11.81
2019-04-10T19:41:32.857Z,11.83
2019-04-10T19:43:54.808Z,11.77
2019-04-10T19:46:21.562Z,11.72
2019-04-10T19:48:50.232Z,11.69
2019-04-10T19:51:16.381Z,11.60
2019-04-10T19:53:42.286Z,11.58
2019-04-10T19:56:09.360Z,11.65
2019-04-10T19:58:36.495Z,11.61
2019-04-10T20:01:05.110Z,11.63
2019-04-10T20:03:32.074Z,11.66
2019-04-10T20:05:57.952Z,11.63
2019-04-10T20:08:24.126Z,11.67
2019-04-10T20:10:49.953Z,11.64
2019-04-10T20:13:16.572Z,11.53
2019-04-10T20:15:42.679Z,11.49
2019-04-10T20:18:08.931Z,11.47
2019-04-10T20:20:35.232Z,11.41
2019-04-10T20:23:02.455Z,11.39
2019-04-10T20:25:28.447Z,11.43
2019-04-10T20:27:54.246Z,11.39
2019-04-10T20:30:22.019Z,11.33
2019-04-10T20:32:47.824Z,11.34
2019-04-10T20:35:13.640Z,11.21
2019-04-10T20:37:39.750Z,11.17
2019-04-10T20:40:05.679Z,11.13
2019-04-10T20:42:32.165Z,11.07
2019-04-10T20:44:58.878Z,10.94
2019-04-10T20:47:25.051Z,10.92
2019-04-10T20:49:51.181Z,10.91
2019-04-10T20:52:17.933Z,10.88
2019-04-10T20:54:44.772Z,10.85
2019-04-10T20:57:11.050Z,10.80
2019-04-10T20:59:37.174Z,10.82
2019-04-10T21:02:04.191Z,10.78
2019-04-10T21:04:30.015Z,10.73
2019-04-10T21:06:58.670Z,10.76
2019-04-10T21:09:25.784Z,10.79
2019-04-10T21:12:02.224Z,10.77
2019-04-10T21:14:23.218Z,10.66
2019-04-10T21:16:49.804Z,10.45
2019-04-10T21:19:16.436Z,10.37
2019-04-10T21:21:43.438Z,10.39
2019-04-10T21:24:09.343Z,10.42
2019-04-10T21:26:35.150Z,10.40
2019-04-10T21:29:02.432Z,10.44
2019-04-10T21:31:40.572Z,10.39
2019-04-10T21:34:14.347Z,10.36
2019-04-10T21:36:41.397Z,10.35
2019-04-10T21:39:07.484Z,10.32
2019-04-10T21:41:34.525Z,10.34
2019-04-10T21:44:02.270Z,10.35
2019-04-10T21:46:28.455Z,10.29
2019-04-10T21:48:55.145Z,10.25
2019-04-10T21:51:21.181Z,10.14
2019-04-10T21:53:47.301Z,9.95
2019-04-10T21:56:13.441Z,9.83
2019-04-10T21:58:39.282Z,9.73
2019-04-10T22:01:06.106Z,9.53
2019-04-10T22:03:32.023Z,9.39
2019-04-10T22:06:16.182Z,9.38
2019-04-10T22:08:50.058Z,9.28
2019-04-10T22:11:17.000Z,9.22
2019-04-10T22:13:42.985Z,9.18
2019-04-10T22:16:11.413Z,9.25
2019-04-10T22:18:37.647Z,9.20
2019-04-10T22:21:04.112Z,9.14
2019-04-10T22:23:30.203Z,9.10
2019-04-10T22:25:56.349Z,9.13
2019-04-10T22:28:23.247Z,9.14
2019-04-10T22:30:50.350Z,9.15
2019-04-10T22:33:16.430Z,9.12
2019-04-10T22:35:42.389Z,9.08
2019-04-10T22:38:13.130Z,8.98
2019-04-10T22:40:40.043Z,8.81
2019-04-10T22:43:07.410Z,8.71
2019-04-10T22:45:33.332Z,8.66
2019-04-10T22:48:00.552Z,8.74
2019-04-10T22:50:27.528Z,8.59
2019-04-10T22:52:54.881Z,8.48
2019-04-10T22:55:21.814Z,8.42
2019-04-10T22:57:48.469Z,8.37
2019-04-10T23:00:16.770Z,8.34
2019-04-10T23:02:42.883Z,8.28
2019-04-10T23:05:09.835Z,8.22
2019-04-10T23:07:35.712Z,8.12
2019-04-10T23:10:02.594Z,7.98
2019-04-10T23:12:28.527Z,7.89
2019-04-10T23:14:55.385Z,7.83
2019-04-10T23:17:21.224Z,7.90
2019-04-10T23:19:47.102Z,7.90
2019-04-10T23:22:13.435Z,7.95
2019-04-10T23:24:40.099Z,7.91
2019-04-10T23:27:06.014Z,7.80
2019-04-10T23:29:32.642Z,7.73
2019-04-10T23:31:58.835Z,7.69
2019-04-10T23:34:25.152Z,7.59
2019-04-10T23:36:50.910Z,7.59
2019-04-10T23:39:16.995Z,7.48
2019-04-10T23:41:42.793Z,7.47
2019-04-10T23:44:09.006Z,7.54
2019-04-10T23:46:34.805Z,7.48
2019-04-10T23:49:01.335Z,7.42
2019-04-10T23:51:29.365Z,7.37
2019-04-10T23:53:55.566Z,7.34
2019-04-10T23:56:21.837Z,7.32
2019-04-10T23:58:49.077Z,7.27
